Time;durP1;ratioP1;P1;durP2;ratioP2;P2;SDS_P1;SDS_P2;PMS_P1;PMS_P2;Temp;Humidity;BMP_temperature;BMP_pressure;BME280_temperature;BME280_humidity;BME280_pressure;Samples;Min_cycle;Max_cycle;Signal;HPM_P1;HPM_P2
2022/07/13 00:02:22;;;;;;;9.35;6.47;;;24.80;95.80;;;;;;5079160;28;20485;-91
2022/07/13 00:04:48;;;;;;;9.68;6.93;;;24.80;96.40;;;;;;5076916;28;20035;-91
2022/07/13 00:07:14;;;;;;;7.88;6.57;;;24.70;96.30;;;;;;5063191;28;20420;-91
2022/07/13 00:09:39;;;;;;;9.98;6.22;;;24.70;96.50;;;;;;5077975;28;20126;-91
2022/07/13 00:12:05;;;;;;;7.45;6.57;;;24.60;96.70;;;;;;5100555;28;20024;-91
2022/07/13 00:14:31;;;;;;;9.52;6.60;;;24.60;96.90;;;;;;5065672;28;20025;-92
2022/07/13 00:16:57;;;;;;;9.32;7.10;;;24.60;97.00;;;;;;5109587;28;20342;-91
2022/07/13 00:19:29;;;;;;;8.40;7.03;;;24.60;97.30;;;;;;5059952;28;20025;-90
2022/07/13 00:21:55;;;;;;;9.45;8.05;;;24.50;97.40;;;;;;5097016;28;20068;-91
2022/07/13 00:24:21;;;;;;;10.35;8.18;;;24.50;97.40;;;;;;5106755;28;20052;-91
2022/07/13 00:26:47;;;;;;;9.57;8.27;;;24.40;97.30;;;;;;5080443;28;20553;-91
2022/07/13 00:29:13;;;;;;;10.77;8.82;;;24.30;97.40;;;;;;5074381;28;20051;-91
2022/07/13 00:31:38;;;;;;;8.73;7.30;;;24.30;97.80;;;;;;5084251;28;20025;-91
2022/07/13 00:34:04;;;;;;;8.98;8.10;;;24.20;98.00;;;;;;5080750;28;20020;-91
2022/07/13 00:36:29;;;;;;;9.40;7.97;;;24.20;98.40;;;;;;5076960;23;20046;-86
2022/07/13 00:38:55;;;;;;;12.07;8.27;;;24.20;98.60;;;;;;5032237;28;20467;-86
2022/07/13 00:41:21;;;;;;;9.00;8.10;;;24.20;98.60;;;;;;5015517;28;20029;-86
2022/07/13 00:43:46;;;;;;;10.45;7.32;;;24.10;98.60;;;;;;5031966;28;20025;-85
2022/07/13 00:46:13;;;;;;;9.70;7.93;;;24.10;98.40;;;;;;5031901;28;20036;-86
2022/07/13 00:48:39;;;;;;;8.82;7.93;;;24.00;98.50;;;;;;5031902;28;20029;-85
2022/07/13 00:51:06;;;;;;;9.10;8.13;;;23.90;98.80;;;;;;5015276;28;20505;-86
2022/07/13 00:53:35;;;;;;;9.57;8.32;;;23.90;99.30;;;;;;5015419;28;20029;-86
2022/07/13 00:56:03;;;;;;;11.48;8.30;;;23.90;99.40;;;;;;5033012;28;20028;-85
2022/07/13 00:58:38;;;;;;;10.70;7.80;;;23.90;99.60;;;;;;5015448;28;20083;-86
2022/07/13 01:01:04;;;;;;;8.95;8.05;;;23.90;99.80;;;;;;5015318;28;20033;-85
2022/07/13 01:03:29;;;;;;;9.05;8.15;;;23.90;99.80;;;;;;5015220;28;20036;-85
2022/07/13 01:05:55;;;;;;;9.43;8.52;;;23.90;99.80;;;;;;5015278;28;20024;-85
2022/07/13 01:08:22;;;;;;;10.20;8.30;;;23.90;99.90;;;;;;5031542;28;20070;-85
2022/07/13 01:10:48;;;;;;;11.27;8.60;;;23.90;99.90;;;;;;5032927;28;20033;-85
2022/07/13 01:13:16;;;;;;;9.60;8.15;;;23.90;99.90;;;;;;5015228;28;20025;-86
2022/07/13 01:15:42;;;;;;;9.40;8.43;;;23.80;99.90;;;;;;5031600;28;20026;-85
2022/07/13 01:18:12;;;;;;;10.32;9.02;;;23.80;99.90;;;;;;5031440;28;20100;-85
2022/07/13 01:20:39;;;;;;;10.52;8.77;;;23.80;99.90;;;;;;5031547;28;20104;-85
2022/07/13 01:23:10;;;;;;;9.98;8.32;;;23.80;99.90;;;;;;5032794;28;20018;-85
2022/07/13 01:25:35;;;;;;;10.52;8.68;;;23.80;99.90;;;;;;5031401;28;20017;-86
2022/07/13 01:28:01;;;;;;;10.38;8.52;;;23.80;99.90;;;;;;5014995;28;20540;-86
2022/07/13 01:30:27;;;;;;;10.52;7.88;;;23.80;99.90;;;;;;5015101;28;20033;-85
2022/07/13 01:32:52;;;;;;;8.93;7.75;;;23.80;99.90;;;;;;4995322;28;20057;-85
2022/07/13 01:35:24;;;;;;;10.18;8.13;;;23.80;99.90;;;;;;5028064;28;20104;-85
2022/07/13 01:37:54;;;;;;;14.05;8.32;;;23.70;99.90;;;;;;5044905;28;20041;-86
2022/07/13 01:40:20;;;;;;;10.52;7.90;;;23.70;99.90;;;;;;5034232;28;20134;-85
2022/07/13 01:42:51;;;;;;;9.10;7.25;;;23.70;99.90;;;;;;5031005;28;20380;-86
2022/07/13 01:45:23;;;;;;;9.57;7.53;;;23.70;99.90;;;;;;5030647;28;20033;-85
2022/07/13 01:47:51;;;;;;;13.40;7.00;;;23.70;99.90;;;;;;5003157;28;20060;-85
2022/07/13 01:50:19;;;;;;;7.38;6.03;;;23.70;99.90;;;;;;5026615;28;20403;-85
2022/07/13 01:52:48;;;;;;;7.78;6.55;;;23.70;99.90;;;;;;5002016;28;20071;-85
2022/07/13 01:55:14;;;;;;;8.55;6.03;;;23.60;99.90;;;;;;5018098;28;20032;-85
2022/07/13 01:57:40;;;;;;;8.23;5.75;;;23.60;99.90;;;;;;5029587;28;20034;-85
2022/07/13 02:00:14;;;;;;;6.55;5.60;;;23.60;99.90;;;;;;5029191;28;20356;-85
2022/07/13 02:02:40;;;;;;;6.65;5.80;;;23.60;99.90;;;;;;5018167;28;20095;-85
2022/07/13 02:05:06;;;;;;;6.72;5.97;;;23.60;99.90;;;;;;5028287;28;20091;-85
2022/07/13 02:07:32;;;;;;;8.07;6.43;;;23.60;99.90;;;;;;5001976;28;20029;-85
2022/07/13 02:09:58;;;;;;;6.97;6.28;;;23.60;99.90;;;;;;5001698;28;20475;-85
2022/07/13 02:12:23;;;;;;;7.18;6.32;;;23.50;99.90;;;;;;5001431;28;20026;-85
2022/07/13 02:14:49;;;;;;;7.45;5.97;;;23.50;99.90;;;;;;5024081;28;20025;-85
2022/07/13 02:17:15;;;;;;;10.52;6.32;;;23.50;99.90;;;;;;5005552;28;20095;-85
2022/07/13 02:19:41;;;;;;;8.13;6.63;;;23.50;99.90;;;;;;5017799;28;20112;-86
2022/07/13 02:22:07;;;;;;;7.45;6.00;;;23.50;99.90;;;;;;5001407;28;20117;-85
2022/07/13 02:24:34;;;;;;;7.93;6.57;;;23.50;99.90;;;;;;5019384;28;20021;-85
2022/07/13 02:26:59;;;;;;;8.07;6.55;;;23.50;99.90;;;;;;5034097;28;20028;-86
2022/07/13 02:29:25;;;;;;;9.23;6.40;;;23.40;99.90;;;;;;5017534;28;20014;-86
2022/07/13 02:31:51;;;;;;;9.50;6.72;;;23.50;99.90;;;;;;5028371;28;20478;-85
2022/07/13 02:34:17;;;;;;;8.10;6.70;;;23.40;99.90;;;;;;5034000;28;20037;-86
2022/07/13 02:36:43;;;;;;;8.35;6.25;;;23.40;99.90;;;;;;5035570;28;20690;-86
2022/07/13 02:39:09;;;;;;;7.93;6.15;;;23.40;99.90;;;;;;5070512;28;20064;-85
2022/07/13 02:41:35;;;;;;;7.32;6.22;;;23.40;99.90;;;;;;5037338;28;20131;-85
2022/07/13 02:44:00;;;;;;;7.75;6.47;;;23.40;99.90;;;;;;5070625;28;20111;-86
2022/07/13 02:46:26;;;;;;;6.95;6.25;;;23.40;99.90;;;;;;5070327;28;20017;-86
2022/07/13 02:48:52;;;;;;;8.38;6.40;;;23.30;99.90;;;;;;5037230;28;20040;-85
2022/07/13 02:51:18;;;;;;;7.03;6.32;;;23.30;99.90;;;;;;5086999;28;20025;-86
2022/07/13 02:53:43;;;;;;;8.10;6.25;;;23.30;99.90;;;;;;5069458;28;20048;-85
2022/07/13 02:56:09;;;;;;;7.07;5.85;;;23.30;99.90;;;;;;5035412;28;20029;-85
2022/07/13 02:58:35;;;;;;;8.13;6.40;;;23.30;99.90;;;;;;5035843;28;20075;-85
2022/07/13 03:01:00;;;;;;;8.00;6.38;;;23.20;99.90;;;;;;5067732;28;20463;-85
2022/07/13 03:03:26;;;;;;;7.53;6.40;;;23.20;99.90;;;;;;5070145;28;20025;-85
2022/07/13 03:05:52;;;;;;;7.05;6.18;;;23.20;99.90;;;;;;5070431;28;20401;-85
2022/07/13 03:08:17;;;;;;;6.90;5.90;;;23.20;99.90;;;;;;5053216;28;20123;-85
2022/07/13 03:10:43;;;;;;;6.80;5.93;;;23.20;99.90;;;;;;5053233;28;20580;-85
2022/07/13 03:13:09;;;;;;;6.93;5.70;;;23.10;99.90;;;;;;5053348;28;20057;-85
2022/07/13 03:15:34;;;;;;;6.35;5.63;;;23.10;99.90;;;;;;5069794;28;20040;-85
2022/07/13 03:18:56;;;;;;;8.90;6.00;;;23.10;99.90;;;;;;5068338;28;20024;-85
2022/07/13 03:21:21;;;;;;;6.38;5.70;;;23.10;99.90;;;;;;5085620;28;20025;-85
2022/07/13 03:23:47;;;;;;;7.47;5.68;;;23.10;99.90;;;;;;5036466;28;20540;-85
2022/07/13 03:26:12;;;;;;;6.97;5.95;;;23.10;99.90;;;;;;5036640;28;20412;-85
2022/07/13 03:28:38;;;;;;;9.32;5.70;;;23.10;99.90;;;;;;5036280;28;20025;-85
2022/07/13 03:31:04;;;;;;;8.52;5.60;;;23.10;99.90;;;;;;5036262;28;20083;-85
2022/07/13 03:33:30;;;;;;;9.48;5.75;;;23.10;99.90;;;;;;5053107;28;20029;-85
2022/07/13 03:35:56;;;;;;;6.30;5.68;;;23.00;99.90;;;;;;5036092;28;20575;-85
2022/07/13 03:39:17;;;;;;;8.27;6.07;;;23.00;99.90;;;;;;5035553;28;20536;-85
2022/07/13 03:41:43;;;;;;;6.70;5.70;;;23.00;99.90;;;;;;5051811;28;20025;-85
2022/07/13 03:44:08;;;;;;;7.90;5.63;;;23.00;99.90;;;;;;5052561;28;20024;-85
2022/07/13 03:46:34;;;;;;;7.68;5.22;;;23.00;99.90;;;;;;5035896;28;20032;-85
2022/07/13 03:49:00;;;;;;;6.38;5.15;;;23.00;99.90;;;;;;5069119;28;20025;-85
2022/07/13 03:51:25;;;;;;;7.57;4.85;;;22.90;99.90;;;;;;5052307;28;20485;-85
2022/07/13 03:53:51;;;;;;;5.95;5.07;;;22.90;99.90;;;;;;5052913;28;20089;-85
2022/07/13 03:56:16;;;;;;;7.05;5.20;;;22.90;99.90;;;;;;5069118;28;20409;-85
2022/07/13 03:58:42;;;;;;;10.65;5.32;;;22.90;99.90;;;;;;5068909;28;20079;-85
2022/07/13 04:01:09;;;;;;;6.10;5.20;;;22.90;99.90;;;;;;5069105;28;20028;-85
2022/07/13 04:03:35;;;;;;;9.88;4.80;;;22.90;99.90;;;;;;5068815;28;20074;-85
2022/07/13 04:06:00;;;;;;;5.45;4.80;;;22.90;99.90;;;;;;5052371;28;20480;-85
2022/07/13 04:08:26;;;;;;;6.13;5.00;;;22.80;99.90;;;;;;5068687;28;20029;-85
2022/07/13 04:11:04;;;;;;;6.10;4.47;;;22.90;99.90;;;;;;5035604;28;20106;-85
2022/07/13 04:13:30;;;;;;;7.43;5.68;;;22.80;99.90;;;;;;5051893;28;20032;-84
2022/07/13 04:15:55;;;;;;;6.70;4.63;;;22.80;99.90;;;;;;5052260;28;20025;-85
2022/07/13 04:18:21;;;;;;;6.82;5.18;;;22.80;99.90;;;;;;5068825;28;20052;-85
2022/07/13 04:20:47;;;;;;;6.57;4.68;;;22.80;99.90;;;;;;5052132;28;20386;-85
2022/07/13 04:23:12;;;;;;;6.72;4.78;;;22.80;99.90;;;;;;5085515;28;20029;-85
2022/07/13 04:25:38;;;;;;;6.47;4.55;;;22.80;99.90;;;;;;5068656;28;20045;-85
2022/07/13 04:28:04;;;;;;;7.25;4.70;;;22.80;99.90;;;;;;5035419;28;20539;-85
2022/07/13 04:30:29;;;;;;;9.95;5.18;;;22.80;99.90;;;;;;5035342;28;20028;-85
2022/07/13 04:32:55;;;;;;;9.60;5.03;;;22.80;99.90;;;;;;5035000;28;20030;-85
2022/07/13 04:35:21;;;;;;;7.03;5.35;;;22.70;99.90;;;;;;5060479;28;20025;-85
2022/07/13 04:37:46;;;;;;;6.78;5.55;;;22.70;99.90;;;;;;5051428;28;20053;-85
2022/07/13 04:40:12;;;;;;;6.72;4.90;;;22.70;99.90;;;;;;5068646;28;20433;-85
2022/07/13 04:42:38;;;;;;;7.05;5.32;;;22.70;99.90;;;;;;5035168;28;20470;-85
2022/07/13 04:45:04;;;;;;;7.20;4.90;;;22.70;99.90;;;;;;5068621;28;20025;-85
2022/07/13 04:47:29;;;;;;;5.68;4.78;;;22.70;99.90;;;;;;5068503;28;20029;-85
2022/07/13 04:49:55;;;;;;;6.00;5.00;;;22.70;99.90;;;;;;5051592;28;20029;-85
2022/07/13 04:52:21;;;;;;;6.07;4.70;;;22.70;99.90;;;;;;5068505;28;20069;-85
2022/07/13 04:54:47;;;;;;;6.70;4.68;;;22.70;99.90;;;;;;5034573;28;20036;-84
2022/07/13 04:57:12;;;;;;;6.45;5.18;;;22.70;99.90;;;;;;5052112;28;20029;-85
2022/07/13 04:59:38;;;;;;;7.20;5.55;;;22.80;99.90;;;;;;5051482;28;20029;-84
2022/07/13 05:02:38;;;;;;;7.72;4.88;;;22.80;99.90;;;;;;5035893;28;20031;-85
2022/07/13 05:05:04;;;;;;;7.47;5.38;;;22.80;99.90;;;;;;5022721;28;20048;-85
2022/07/13 05:07:30;;;;;;;7.20;5.00;;;22.80;99.90;;;;;;5047688;28;20091;-85
2022/07/13 05:09:56;;;;;;;7.78;5.05;;;22.80;99.90;;;;;;5029849;28;20188;-85
2022/07/13 05:12:39;;;;;;;6.20;4.97;;;22.80;99.90;;;;;;5019374;28;20532;-85
2022/07/13 05:15:07;;;;;;;6.57;4.70;;;22.80;99.90;;;;;;5051793;28;20379;-85
2022/07/13 05:17:32;;;;;;;9.20;4.70;;;22.80;99.90;;;;;;5034798;28;20124;-85
2022/07/13 05:19:58;;;;;;;8.60;5.10;;;22.70;99.90;;;;;;5052892;28;20163;-87
2022/07/13 05:22:24;;;;;;;15.05;5.82;;;22.60;99.90;;;;;;5034985;28;20044;-87
2022/07/13 05:24:49;;;;;;;8.80;4.90;;;22.60;99.90;;;;;;5053778;28;20025;-85
2022/07/13 05:27:15;;;;;;;7.22;5.22;;;22.60;99.90;;;;;;5038812;28;20027;-85
2022/07/13 05:29:41;;;;;;;7.80;5.13;;;22.50;99.90;;;;;;5055174;28;20043;-87
2022/07/13 05:32:07;;;;;;;8.18;5.72;;;22.50;99.90;;;;;;5045651;28;20025;-86
2022/07/13 05:34:32;;;;;;;8.63;5.30;;;22.50;99.90;;;;;;5039188;28;20458;-87
2022/07/13 05:36:58;;;;;;;10.00;5.50;;;22.50;99.90;;;;;;5038643;28;20048;-87
2022/07/13 05:39:24;;;;;;;9.10;5.93;;;22.50;99.90;;;;;;5038707;28;20029;-87
2022/07/13 05:41:50;;;;;;;8.45;5.68;;;22.50;99.90;;;;;;5038613;28;20473;-87
2022/07/13 05:44:16;;;;;;;8.70;5.82;;;22.60;99.90;;;;;;5038367;28;20496;-88
2022/07/13 05:46:42;;;;;;;7.90;6.05;;;22.60;99.90;;;;;;5054934;28;20052;-87
2022/07/13 05:49:07;;;;;;;9.63;6.53;;;22.60;99.90;;;;;;5038518;28;20029;-87
2022/07/13 05:51:33;;;;;;;9.93;6.30;;;22.70;99.80;;;;;;5038412;28;20029;-87
2022/07/13 05:53:58;;;;;;;8.13;6.18;;;22.70;99.70;;;;;;5038694;28;20021;-87
2022/07/13 05:56:24;;;;;;;10.13;5.78;;;22.70;99.70;;;;;;5038253;28;20331;-87
2022/07/13 05:58:50;;;;;;;8.73;6.80;;;22.70;99.60;;;;;;5054739;28;20382;-87
2022/07/13 06:01:15;;;;;;;10.65;6.60;;;22.70;99.50;;;;;;5038160;28;20021;-87
2022/07/13 06:03:41;;;;;;;8.40;6.68;;;22.70;99.50;;;;;;5037911;28;20025;-87
2022/07/13 06:06:07;;;;;;;8.90;6.95;;;22.70;99.40;;;;;;5054642;28;20025;-87
2022/07/13 06:08:32;;;;;;;14.40;7.70;;;22.80;99.40;;;;;;5037948;28;20413;-87
2022/07/13 06:10:58;;;;;;;9.05;7.05;;;22.80;99.30;;;;;;5037846;28;20048;-87
2022/07/13 06:13:24;;;;;;;12.02;6.68;;;22.70;99.30;;;;;;5037731;28;20367;-87
2022/07/13 06:15:50;;;;;;;10.18;7.93;;;22.80;99.30;;;;;;5037651;28;20048;-87
2022/07/13 06:18:16;;;;;;;8.90;7.25;;;22.80;99.20;;;;;;5037890;28;20394;-87
2022/07/13 06:20:41;;;;;;;13.57;7.30;;;22.80;99.20;;;;;;5071028;28;20028;-87
2022/07/13 06:23:09;;;;;;;9.00;6.88;;;22.80;99.20;;;;;;5037603;28;20022;-87
2022/07/13 06:25:36;;;;;;;9.35;7.05;;;22.80;99.20;;;;;;5037917;28;20074;-87
2022/07/13 06:28:02;;;;;;;9.32;6.68;;;22.80;99.20;;;;;;5037629;28;20029;-87
2022/07/13 06:30:28;;;;;;;9.60;6.70;;;22.90;99.30;;;;;;5054048;28;20382;-87
2022/07/13 06:32:53;;;;;;;8.60;6.35;;;22.90;99.20;;;;;;5037319;28;20163;-87
2022/07/13 06:35:19;;;;;;;7.65;6.47;;;22.90;99.20;;;;;;5036174;28;20037;-87
2022/07/13 06:37:45;;;;;;;8.07;6.55;;;22.90;99.00;;;;;;5037015;28;20061;-87
2022/07/13 06:40:11;;;;;;;10.88;6.82;;;23.00;99.10;;;;;;5037342;28;20026;-86
2022/07/13 06:42:36;;;;;;;7.95;6.30;;;23.00;99.20;;;;;;5037067;28;20116;-86
2022/07/13 06:45:03;;;;;;;8.32;6.43;;;23.00;99.20;;;;;;5037352;28;20055;-87
2022/07/13 06:47:29;;;;;;;11.20;6.32;;;23.00;99.00;;;;;;5053728;28;20044;-87
2022/07/13 06:49:55;;;;;;;12.20;6.95;;;23.10;99.10;;;;;;5036969;28;20029;-87
2022/07/13 06:52:20;;;;;;;11.52;6.35;;;23.10;99.10;;;;;;5037061;28;20051;-87
2022/07/13 06:54:46;;;;;;;10.55;6.45;;;23.10;99.10;;;;;;5036990;28;20124;-87
2022/07/13 06:57:11;;;;;;;9.73;6.97;;;23.20;98.90;;;;;;5053628;28;20127;-87
2022/07/13 06:59:37;;;;;;;10.20;6.45;;;23.20;98.80;;;;;;5037029;28;20035;-87
2022/07/13 07:02:03;;;;;;;10.43;6.65;;;23.20;98.60;;;;;;5036866;28;20108;-87
2022/07/13 07:04:29;;;;;;;9.90;6.43;;;23.20;98.50;;;;;;5036951;28;20029;-86
2022/07/13 07:06:56;;;;;;;9.48;7.07;;;23.30;98.40;;;;;;5036816;28;20111;-87
2022/07/13 07:09:22;;;;;;;9.05;6.55;;;23.30;98.40;;;;;;5036825;28;20056;-86
2022/07/13 07:11:48;;;;;;;8.70;6.38;;;23.30;98.30;;;;;;5054663;28;20060;-87
2022/07/13 07:14:14;;;;;;;9.20;6.68;;;23.40;98.50;;;;;;5036639;28;20017;-87
2022/07/13 07:16:40;;;;;;;9.82;6.63;;;23.40;98.60;;;;;;5036593;28;20043;-87
2022/07/13 07:19:06;;;;;;;8.65;6.60;;;23.50;98.70;;;;;;5053149;28;20095;-87
2022/07/13 07:21:31;;;;;;;9.27;6.60;;;23.50;98.70;;;;;;5036673;28;20021;-87
2022/07/13 07:23:58;;;;;;;12.23;7.07;;;23.60;98.80;;;;;;5036441;28;20381;-87
2022/07/13 07:26:24;;;;;;;9.88;6.32;;;23.60;98.60;;;;;;5053089;28;20021;-87
2022/07/13 07:28:50;;;;;;;8.77;6.13;;;23.60;98.60;;;;;;5053126;28;20083;-87
2022/07/13 07:31:15;;;;;;;9.00;6.75;;;23.70;98.60;;;;;;5069615;28;20501;-87
2022/07/13 07:33:41;;;;;;;8.52;6.28;;;23.70;98.50;;;;;;5036958;28;20060;-87
2022/07/13 07:36:07;;;;;;;10.55;6.22;;;23.70;98.30;;;;;;5036142;28;20059;-87
2022/07/13 07:38:32;;;;;;;7.90;5.55;;;23.80;98.10;;;;;;5036156;28;20025;-87
2022/07/13 07:44:20;;;;;;;8.70;5.55;;;23.90;98.30;;;;;;5053238;28;20359;-87
2022/07/13 07:46:47;;;;;;;11.07;6.20;;;24.00;98.40;;;;;;5052283;28;20029;-87
2022/07/13 07:49:13;;;;;;;6.97;5.28;;;24.10;98.20;;;;;;5069394;28;20025;-87
2022/07/13 07:51:38;;;;;;;8.25;5.13;;;24.10;97.80;;;;;;5052737;28;20104;-87
2022/07/13 07:54:05;;;;;;;7.78;4.72;;;24.20;97.80;;;;;;5052959;28;20487;-87
2022/07/13 07:56:31;;;;;;;8.77;5.57;;;24.20;97.60;;;;;;5036165;28;20028;-88
2022/07/13 07:58:57;;;;;;;10.98;5.35;;;24.30;97.50;;;;;;5035939;28;20055;-88
2022/07/13 08:01:23;;;;;;;7.28;4.90;;;24.30;97.40;;;;;;5035845;28;20562;-87
2022/07/13 08:03:49;;;;;;;7.28;4.88;;;24.30;97.30;;;;;;5061028;28;20398;-88
2022/07/13 08:06:16;;;;;;;9.00;5.00;;;24.40;97.20;;;;;;5046698;28;20021;-87
2022/07/13 08:08:42;;;;;;;8.98;5.13;;;24.50;97.10;;;;;;5052447;28;20057;-88
2022/07/13 08:11:09;;;;;;;7.72;4.25;;;24.50;97.00;;;;;;5069288;28;20056;-87
2022/07/13 08:13:35;;;;;;;6.30;4.18;;;24.60;97.00;;;;;;5085833;28;20020;-87
2022/07/13 08:16:02;;;;;;;7.78;4.88;;;24.60;97.10;;;;;;5034769;28;20025;-87
2022/07/13 08:18:28;;;;;;;7.00;4.35;;;24.70;97.20;;;;;;5034909;28;20033;-87
2022/07/13 08:20:54;;;;;;;8.10;4.03;;;24.70;97.10;;;;;;5035309;28;20040;-87
2022/07/13 08:26:04;;;;;;;5.80;3.80;;;24.80;97.00;;;;;;5052951;28;20120;-87
2022/07/13 08:28:29;;;;;;;7.50;4.53;;;24.80;97.10;;;;;;5035595;28;20115;-87
2022/07/13 08:30:55;;;;;;;5.43;3.80;;;24.90;97.20;;;;;;5069011;28;20029;-87
2022/07/13 08:38:34;;;;;;;6.00;4.25;;;24.90;97.20;;;;;;5035796;28;20029;-87
2022/07/13 08:38:51;;;;;;;7.85;4.03;;;25.00;97.30;;;;;;5045692;28;20099;-85
2022/07/13 08:41:17;;;;;;;5.70;4.43;;;25.00;97.50;;;;;;5080666;28;20056;-86
2022/07/13 08:43:42;;;;;;;6.60;4.78;;;25.10;97.70;;;;;;5033152;28;20108;-85
2022/07/13 08:46:08;;;;;;;8.98;4.80;;;25.10;97.60;;;;;;5051154;28;20029;-87
2022/07/13 08:48:40;;;;;;;7.78;4.80;;;25.10;97.40;;;;;;5053687;28;20061;-87
2022/07/13 08:51:06;;;;;;;6.57;4.57;;;25.20;97.10;;;;;;5051289;28;20163;-87
2022/07/13 08:53:32;;;;;;;9.20;4.72;;;25.20;97.00;;;;;;5050972;28;20534;-89
2022/07/13 08:59:20;;;;;;;7.93;4.53;;;25.30;97.00;;;;;;5051302;28;20162;-87
2022/07/13 09:01:45;;;;;;;14.20;5.03;;;25.30;97.10;;;;;;5038961;28;20040;-87
2022/07/13 09:04:11;;;;;;;8.30;5.07;;;25.30;97.10;;;;;;5039000;28;20055;-87
2022/07/13 09:06:44;;;;;;;6.00;4.47;;;25.30;97.20;;;;;;5055237;28;20104;-87
2022/07/13 09:09:35;;;;;;;7.90;4.15;;;25.40;97.20;;;;;;5055497;28;20029;-87
2022/07/13 09:12:23;;;;;;;6.82;4.57;;;25.50;97.40;;;;;;5055333;28;20057;-88
2022/07/13 09:14:56;;;;;;;8.75;5.22;;;25.50;97.30;;;;;;5054881;28;20376;-88
2022/07/13 09:17:42;;;;;;;7.43;3.85;;;25.50;97.10;;;;;;5047977;28;20033;-88
2022/07/13 09:20:14;;;;;;;6.80;4.18;;;25.60;97.10;;;;;;5036595;28;20013;-88
2022/07/13 09:22:54;;;;;;;7.55;4.75;;;25.60;97.20;;;;;;5083124;28;20047;-88
2022/07/13 09:25:35;;;;;;;5.65;4.03;;;25.70;97.30;;;;;;5055258;28;20355;-88
2022/07/13 09:28:05;;;;;;;6.45;4.18;;;25.70;97.10;;;;;;5040111;28;20033;-88
2022/07/13 09:30:32;;;;;;;6.68;4.22;;;25.80;97.00;;;;;;5039238;28;20040;-88
2022/07/13 09:32:58;;;;;;;6.65;4.38;;;25.80;97.10;;;;;;5072180;28;20029;-87
2022/07/13 09:35:47;;;;;;;7.70;4.40;;;25.90;96.80;;;;;;5055356;28;20079;-87
2022/07/13 09:38:30;;;;;;;7.78;4.72;;;25.90;96.80;;;;;;5058215;28;20052;-85
2022/07/13 09:40:56;;;;;;;9.55;5.22;;;25.90;96.70;;;;;;5038365;28;20010;-86
2022/07/13 09:46:09;;;;;;;6.15;4.78;;;26.10;96.30;;;;;;5041461;28;20440;-85
2022/07/13 09:48:38;;;;;;;6.15;4.50;;;26.10;96.30;;;;;;5039158;28;20048;-86
2022/07/13 09:51:05;;;;;;;5.55;3.95;;;26.20;96.30;;;;;;5023396;28;20036;-85
2022/07/13 09:53:32;;;;;;;5.68;4.28;;;26.30;96.00;;;;;;5057607;28;20025;-86
2022/07/13 09:56:00;;;;;;;9.27;4.68;;;26.30;95.60;;;;;;5052582;28;20025;-86
2022/07/13 09:58:29;;;;;;;7.80;4.13;;;26.40;95.10;;;;;;5038318;28;20025;-88
2022/07/13 10:00:56;;;;;;;5.75;3.92;;;26.40;95.00;;;;;;5056185;28;20029;-88
2022/07/13 10:03:23;;;;;;;6.38;4.25;;;26.50;94.80;;;;;;5087026;28;20363;-88
2022/07/13 10:05:51;;;;;;;10.65;4.80;;;26.60;94.80;;;;;;5058084;28;20029;-88
2022/07/13 10:08:17;;;;;;;7.28;4.22;;;26.60;94.60;;;;;;5044349;28;20056;-87
2022/07/13 10:10:45;;;;;;;8.43;4.43;;;26.70;94.20;;;;;;5054431;28;20025;-86
2022/07/13 10:13:12;;;;;;;6.43;3.97;;;26.80;94.20;;;;;;5037950;28;20029;-86
2022/07/13 10:15:39;;;;;;;5.70;3.65;;;26.80;94.10;;;;;;5058717;28;20029;-85
2022/07/13 10:18:08;;;;;;;8.68;3.92;;;26.90;94.00;;;;;;5057664;28;20056;-88
2022/07/13 10:20:37;;;;;;;6.40;3.13;;;26.90;94.10;;;;;;5055028;28;20021;-86
2022/07/13 10:23:03;;;;;;;5.63;3.38;;;27.00;93.90;;;;;;5070497;28;20052;-87
2022/07/13 10:25:43;;;;;;;6.47;3.40;;;27.00;93.50;;;;;;5056717;28;20025;-87
2022/07/13 10:28:11;;;;;;;5.13;3.60;;;27.20;93.40;;;;;;5065690;28;20025;-86
2022/07/13 10:30:37;;;;;;;4.93;2.85;;;27.20;93.30;;;;;;5038362;28;20052;-85
2022/07/13 10:33:20;;;;;;;7.22;2.97;;;27.30;93.30;;;;;;5067225;28;20478;-84
2022/07/13 10:35:50;;;;;;;6.55;3.15;;;27.30;93.30;;;;;;5022301;28;20033;-85
2022/07/13 10:38:17;;;;;;;5.32;2.75;;;27.40;92.80;;;;;;5049853;28;20517;-85
2022/07/13 10:40:43;;;;;;;5.05;3.00;;;27.40;92.30;;;;;;5036491;28;20022;-85
2022/07/13 10:43:09;;;;;;;6.88;2.60;;;27.50;92.10;;;;;;5050632;28;20025;-86
2022/07/13 10:45:41;;;;;;;6.55;2.97;;;27.60;92.10;;;;;;5021585;28;20146;-85
2022/07/13 10:48:17;;;;;;;6.43;2.70;;;27.60;91.70;;;;;;5049769;28;20371;-86
2022/07/13 10:50:46;;;;;;;4.50;2.28;;;27.70;91.60;;;;;;5035050;28;20091;-85
2022/07/13 10:53:15;;;;;;;4.82;3.10;;;27.70;91.60;;;;;;5048175;28;20535;-86
2022/07/13 10:55:47;;;;;;;7.00;3.00;;;27.80;91.40;;;;;;5030476;28;20433;-85
2022/07/13 10:58:31;;;;;;;7.70;2.78;;;27.90;91.60;;;;;;5036087;28;20479;-85
2022/07/13 11:00:59;;;;;;;5.07;3.03;;;28.00;90.50;;;;;;5066817;28;20021;-85
2022/07/13 11:03:27;;;;;;;4.57;2.60;;;28.00;90.30;;;;;;5029581;28;20371;-86
2022/07/13 11:06:25;;;;;;;4.50;2.97;;;28.10;90.00;;;;;;5025406;28;20027;-85
2022/07/13 11:09:15;;;;;;;4.45;2.90;;;28.10;90.10;;;;;;5004434;28;20041;-86
2022/07/13 11:11:46;;;;;;;3.97;2.45;;;28.20;90.20;;;;;;5018848;28;20018;-86
2022/07/13 11:14:30;;;;;;;;;;;28.20;90.30;;;;;;5022785;28;20090;-85
2022/07/13 11:16:56;;;;;;;5.95;3.88;;;28.30;90.40;;;;;;5031486;28;19906;-86
2022/07/13 11:20:00;;;;;;;4.38;3.00;;;28.30;90.00;;;;;;4999816;28;20034;-86
2022/07/13 11:25:32;;;;;;;5.50;2.78;;;28.50;89.60;;;;;;5034705;28;20075;-86
2022/07/13 11:28:19;;;;;;;4.28;2.40;;;28.50;88.20;;;;;;5066404;28;20022;-85
2022/07/13 11:30:53;;;;;;;3.05;2.10;;;28.60;87.20;;;;;;5034132;28;20025;-85
2022/07/13 11:33:19;;;;;;;33.75;27.67;;;28.60;86.90;;;;;;5066259;28;20025;-85
2022/07/13 11:35:46;;;;;;;21.00;17.42;;;28.70;87.30;;;;;;5032753;28;20041;-85
2022/07/13 11:38:17;;;;;;;12.90;7.40;;;28.70;87.60;;;;;;5047254;28;20052;-86
2022/07/13 11:40:43;;;;;;;6.20;3.60;;;28.80;87.80;;;;;;5064960;28;20417;-85
2022/07/13 11:43:10;;;;;;;7.22;3.13;;;28.80;86.70;;;;;;5012545;28;20113;-85
2022/07/13 11:45:38;;;;;;;5.63;2.97;;;28.80;85.50;;;;;;5045222;28;20319;-85
2022/07/13 11:48:05;;;;;;;5.95;2.92;;;28.80;84.90;;;;;;5063167;28;20033;-85
2022/07/13 11:50:49;;;;;;;5.07;2.67;;;28.80;84.90;;;;;;5046704;28;20094;-86
2022/07/13 11:53:21;;;;;;;4.88;2.90;;;28.90;86.00;;;;;;5024475;28;20489;-85
2022/07/13 11:55:47;;;;;;;5.72;2.60;;;28.90;86.40;;;;;;5034210;28;20030;-85
2022/07/13 11:58:33;;;;;;;5.68;2.10;;;29.00;85.90;;;;;;5032486;28;20029;-85
2022/07/13 12:01:11;;;;;;;3.67;2.30;;;29.00;84.60;;;;;;5033318;28;20033;-85
2022/07/13 12:03:37;;;;;;;5.60;2.60;;;29.00;83.60;;;;;;5031055;28;20410;-85
2022/07/13 12:06:08;;;;;;;3.95;2.03;;;29.00;83.40;;;;;;5019946;28;20010;-86
2022/07/13 12:08:39;;;;;;;3.33;1.67;;;29.00;83.40;;;;;;5025795;28;20033;-85
2022/07/13 12:11:07;;;;;;;4.25;1.85;;;29.10;82.50;;;;;;5026089;28;20022;-83
2022/07/13 12:13:40;;;;;;;2.70;1.92;;;29.20;81.50;;;;;;5046394;28;20039;-81
2022/07/13 12:16:09;;;;;;;3.55;1.70;;;29.30;80.50;;;;;;5056693;28;20498;-83
2022/07/13 12:18:58;;;;;;;3.05;1.67;;;29.30;79.50;;;;;;5029910;28;20025;-83
2022/07/13 12:21:24;;;;;;;7.30;1.83;;;29.40;78.80;;;;;;5048066;28;20149;-83
2022/07/13 12:23:50;;;;;;;2.55;1.80;;;29.40;78.80;;;;;;5031524;28;20476;-84
2022/07/13 12:26:15;;;;;;;3.40;1.90;;;29.50;78.40;;;;;;5047160;28;20084;-83
2022/07/13 12:28:44;;;;;;;5.57;1.70;;;29.50;77.70;;;;;;5047785;28;20060;-84
2022/07/13 12:31:13;;;;;;;3.25;1.88;;;29.60;77.60;;;;;;5031960;28;20033;-84
2022/07/13 12:33:44;;;;;;;3.08;1.63;;;29.70;76.30;;;;;;5031816;28;20022;-83
2022/07/13 12:36:11;;;;;;;4.50;1.50;;;29.70;74.80;;;;;;5033869;28;20037;-85
2022/07/13 12:39:01;;;;;;;2.03;1.40;;;29.70;72.90;;;;;;5051936;28;20029;-85
2022/07/13 12:41:29;;;;;;;4.78;1.67;;;29.80;72.20;;;;;;5053015;28;20036;-85
2022/07/13 12:43:56;;;;;;;2.33;1.50;;;29.80;70.80;;;;;;5052013;28;20013;-84
2022/07/13 12:46:22;;;;;;;2.75;1.25;;;29.90;70.10;;;;;;5051986;28;20465;-84
2022/07/13 12:48:59;;;;;;;3.03;1.50;;;29.90;68.70;;;;;;5051588;28;20052;-84
2022/07/13 12:51:25;;;;;;;3.60;1.23;;;30.00;67.80;;;;;;5053206;22;20057;-84
2022/07/13 12:53:53;;;;;;;3.10;1.27;;;30.00;68.00;;;;;;5015849;28;20470;-84
2022/07/13 12:56:21;;;;;;;2.60;1.20;;;30.10;66.60;;;;;;5034535;28;20034;-83
2022/07/13 12:58:50;;;;;;;3.17;1.60;;;30.10;65.30;;;;;;5035188;28;20075;-84
2022/07/13 13:01:31;;;;;;;3.15;1.30;;;30.20;63.80;;;;;;5035721;28;20025;-85
2022/07/13 13:03:58;;;;;;;2.83;1.30;;;30.20;62.80;;;;;;5034885;28;20021;-86
2022/07/13 13:06:24;;;;;;;2.70;1.52;;;30.30;62.70;;;;;;5035061;28;20374;-86
2022/07/13 13:08:50;;;;;;;2.15;1.20;;;30.30;62.90;;;;;;5034652;28;20025;-85
2022/07/13 13:11:15;;;;;;;4.05;1.70;;;30.30;63.30;;;;;;5034534;28;20029;-85